Time;durP1;ratioP1;P1;durP2;ratioP2;P2;SDS_P1;SDS_P2;PMS_P1;PMS_P2;Temp;Humidity;BMP_temperature;BMP_pressure;BME280_temperature;BME280_humidity;BME280_pressure;Samples;Min_cycle;Max_cycle;Signal;HPM_P1;HPM_P2
2022/10/09 00:01:13;;;;;;;11.47;6.87;;;5.70;99.90;;;;;;5046731;28;20326;-51
2022/10/09 00:03:43;;;;;;;11.60;6.77;;;5.70;99.90;;;;;;5048451;28;20233;-51
2022/10/09 00:06:14;;;;;;;5.37;3.83;;;5.70;99.90;;;;;;5049250;28;20284;-51
2022/10/09 00:08:42;;;;;;;15.97;8.73;;;5.70;99.90;;;;;;5049524;28;20448;-52
2022/10/09 00:11:13;;;;;;;12.80;7.93;;;5.60;99.90;;;;;;5046755;28;20326;-52
2022/10/09 00:13:41;;;;;;;547.20;121.30;;;5.60;99.90;;;;;;5049137;28;20233;-50
2022/10/09 00:16:13;;;;;;;13.93;11.03;;;5.60;99.90;;;;;;5049343;28;20308;-51
2022/10/09 00:18:41;;;;;;;40.47;21.47;;;5.60;99.90;;;;;;5049108;28;20209;-51
2022/10/09 00:21:18;;;;;;;10.57;6.17;;;5.60;99.90;;;;;;5049193;28;20205;-51
2022/10/09 00:23:47;;;;;;;11.90;8.57;;;5.60;99.90;;;;;;5048493;28;20317;-51
2022/10/09 00:26:15;;;;;;;21.17;8.27;;;5.60;99.90;;;;;;5048915;28;20285;-52
2022/10/09 00:28:44;;;;;;;18.77;8.23;;;5.50;99.90;;;;;;5048770;28;20300;-51
2022/10/09 00:31:14;;;;;;;8.40;5.00;;;5.60;99.90;;;;;;5047593;28;20217;-50
2022/10/09 00:33:42;;;;;;;11.53;4.30;;;5.50;99.90;;;;;;5048317;28;20240;-51
2022/10/09 00:36:13;;;;;;;11.57;6.63;;;5.50;99.90;;;;;;5048229;28;20592;-50
2022/10/09 00:38:41;;;;;;;11.27;5.17;;;5.50;99.90;;;;;;5047168;28;20217;-51
2022/10/09 00:41:14;;;;;;;16.90;12.90;;;5.50;99.90;;;;;;5049081;28;21516;-51
2022/10/09 00:43:45;;;;;;;7.20;4.50;;;5.50;99.90;;;;;;5048950;28;20283;-50
2022/10/09 00:46:32;;;;;;;52.70;15.20;;;5.50;99.90;;;;;;5048912;28;20377;-51
2022/10/09 00:49:05;;;;;;;8.50;3.80;;;5.50;99.90;;;;;;5047923;28;20260;-51
2022/10/09 00:51:34;;;;;;;5.37;4.30;;;5.50;99.90;;;;;;5048819;28;20205;-50
2022/10/09 00:54:06;;;;;;;6.60;3.90;;;5.50;99.90;;;;;;5048054;28;20347;-51
2022/10/09 00:56:35;;;;;;;9.27;4.07;;;5.50;99.90;;;;;;5044603;28;20223;-50
2022/10/09 00:59:03;;;;;;;6.80;4.00;;;5.50;99.90;;;;;;5048314;28;20209;-51
2022/10/09 01:01:33;;;;;;;7.93;3.60;;;5.50;99.90;;;;;;5048624;28;20678;-52
2022/10/09 01:04:01;;;;;;;9.67;7.10;;;5.50;99.90;;;;;;5047519;28;20324;-51
2022/10/09 01:06:43;;;;;;;8.07;4.77;;;5.40;99.90;;;;;;5048376;28;20674;-51
2022/10/09 01:09:14;;;;;;;8.73;4.87;;;5.40;99.90;;;;;;5047477;28;20216;-50
2022/10/09 01:11:51;;;;;;;27.40;4.53;;;5.40;99.90;;;;;;5045760;28;20582;-51
2022/10/09 01:14:26;;;;;;;9.63;6.43;;;5.40;99.90;;;;;;5048364;28;20953;-50
2022/10/09 01:17:02;;;;;;;79.10;32.70;;;5.40;99.90;;;;;;5048148;28;20300;-51
2022/10/09 01:20:01;;;;;;;8.93;4.83;;;5.40;99.90;;;;;;5048212;28;20304;-52
2022/10/09 01:22:43;;;;;;;87.10;30.87;;;5.30;99.90;;;;;;5044992;28;20209;-51
2022/10/09 01:25:19;;;;;;;41.90;16.03;;;5.30;99.90;;;;;;5049497;28;20205;-51
2022/10/09 01:27:49;;;;;;;6.97;4.23;;;5.30;99.90;;;;;;5052370;28;20292;-51
2022/10/09 01:30:17;;;;;;;12.77;10.87;;;5.30;99.90;;;;;;5052026;28;20292;-50
2022/10/09 01:32:50;;;;;;;6.47;4.13;;;5.30;99.90;;;;;;5051201;28;20206;-52
2022/10/09 01:35:20;;;;;;;7.57;6.87;;;5.30;99.90;;;;;;5051684;28;20219;-50
2022/10/09 01:37:50;;;;;;;8.80;4.07;;;5.30;99.90;;;;;;5052115;28;20334;-49
2022/10/09 01:40:20;;;;;;;6.77;4.07;;;5.20;99.90;;;;;;5051520;28;20205;-51
2022/10/09 01:42:49;;;;;;;30.47;10.27;;;5.20;99.90;;;;;;5051145;28;20206;-50
2022/10/09 01:45:17;;;;;;;29.37;16.90;;;5.20;99.90;;;;;;5051454;28;20208;-52
2022/10/09 01:47:45;;;;;;;130.70;81.13;;;5.20;99.90;;;;;;5051736;28;20294;-51
2022/10/09 01:50:23;;;;;;;20.77;19.07;;;5.20;99.90;;;;;;5051112;28;20731;-51
2022/10/09 01:52:53;;;;;;;22.53;20.50;;;5.10;99.90;;;;;;5051716;28;20213;-51
2022/10/09 01:55:36;;;;;;;158.90;90.43;;;5.10;99.90;;;;;;5050854;28;20220;-51
2022/10/09 01:58:15;;;;;;;22.10;19.13;;;5.10;99.90;;;;;;5052393;28;20596;-51
2022/10/09 02:00:47;;;;;;;678.30;296.53;;;5.10;99.90;;;;;;5052127;28;20301;-50
2022/10/09 02:03:17;;;;;;;10.90;9.10;;;5.10;99.90;;;;;;5051961;28;20253;-51
2022/10/09 02:05:48;;;;;;;133.63;84.53;;;5.10;99.90;;;;;;5051421;28;20297;-51
2022/10/09 02:08:19;;;;;;;26.33;24.23;;;5.00;99.90;;;;;;5051588;28;20207;-51
2022/10/09 02:10:50;;;;;;;40.80;37.40;;;5.00;99.90;;;;;;5051044;28;20297;-51
2022/10/09 02:13:20;;;;;;;29.83;27.00;;;5.00;99.90;;;;;;5051943;28;20231;-51
2022/10/09 02:15:52;;;;;;;91.50;72.23;;;5.00;99.90;;;;;;5052822;28;20330;-51
2022/10/09 02:18:28;;;;;;;48.13;34.53;;;5.00;99.90;;;;;;5052738;28;20208;-51
2022/10/09 02:21:04;;;;;;;55.97;49.83;;;5.00;99.90;;;;;;5052021;28;20217;-51
2022/10/09 02:23:33;;;;;;;23.63;21.37;;;5.00;99.90;;;;;;5052084;28;20431;-51
2022/10/09 02:26:01;;;;;;;66.20;59.47;;;5.00;99.90;;;;;;5052387;28;20207;-50
2022/10/09 02:28:31;;;;;;;11.47;10.60;;;5.00;99.90;;;;;;5052028;28;20212;-54
2022/10/09 02:31:05;;;;;;;124.93;81.67;;;5.00;99.90;;;;;;5051765;28;20210;-52
2022/10/09 02:33:34;;;;;;;23.67;21.23;;;5.00;99.90;;;;;;5048969;28;20627;-51
2022/10/09 02:36:02;;;;;;;15.13;13.73;;;4.90;99.90;;;;;;5042611;28;20232;-51
2022/10/09 02:38:30;;;;;;;21.23;18.40;;;4.90;99.90;;;;;;5051139;28;20210;-51
2022/10/09 02:40:59;;;;;;;50.30;45.47;;;4.90;99.90;;;;;;5050798;28;20302;-51
2022/10/09 02:43:28;;;;;;;14.47;13.37;;;4.90;99.90;;;;;;5050418;28;20226;-50
2022/10/09 02:45:57;;;;;;;68.43;61.63;;;4.90;99.90;;;;;;5051042;28;20205;-49
2022/10/09 02:48:25;;;;;;;21.20;19.53;;;4.90;99.90;;;;;;5048293;28;20230;-51
2022/10/09 02:50:53;;;;;;;42.20;38.40;;;4.90;99.90;;;;;;5051145;28;20265;-51
2022/10/09 02:53:21;;;;;;;14.27;13.07;;;4.90;99.90;;;;;;5040027;28;20350;-52
2022/10/09 02:55:49;;;;;;;30.47;28.23;;;4.90;99.90;;;;;;5050012;28;20263;-51
2022/10/09 02:58:17;;;;;;;22.87;20.60;;;4.80;99.90;;;;;;5050827;28;20246;-52
2022/10/09 03:00:48;;;;;;;25.03;23.27;;;4.80;99.90;;;;;;5051243;28;20319;-51
2022/10/09 03:03:18;;;;;;;15.23;12.63;;;4.80;99.90;;;;;;5049691;28;20669;-51
2022/10/09 03:05:47;;;;;;;19.33;17.67;;;4.80;99.90;;;;;;5053758;28;20293;-51
2022/10/09 03:08:15;;;;;;;42.30;38.00;;;4.70;99.90;;;;;;5055418;28;20207;-51
2022/10/09 03:10:43;;;;;;;30.37;27.50;;;4.80;99.90;;;;;;5055674;28;20303;-51
2022/10/09 03:13:11;;;;;;;29.20;26.87;;;4.70;99.90;;;;;;5052962;28;20264;-51
2022/10/09 03:15:39;;;;;;;21.37;19.93;;;4.70;99.90;;;;;;5050557;28;20213;-51
2022/10/09 03:18:07;;;;;;;12.70;10.90;;;4.70;99.90;;;;;;5050192;28;20211;-50
2022/10/09 03:20:37;;;;;;;48.87;44.43;;;4.70;99.90;;;;;;5050280;28;20213;-51
2022/10/09 03:23:05;;;;;;;29.37;26.57;;;4.70;99.90;;;;;;5050122;28;20332;-51
2022/10/09 03:25:33;;;;;;;43.93;39.57;;;4.60;99.90;;;;;;5049575;28;20904;-52
2022/10/09 03:28:01;;;;;;;40.23;35.40;;;4.60;99.90;;;;;;5050663;28;20204;-51
2022/10/09 03:30:30;;;;;;;67.43;60.03;;;4.60;99.90;;;;;;5050338;28;20868;-50
2022/10/09 03:32:58;;;;;;;18.10;16.93;;;4.70;99.90;;;;;;5049398;28;20206;-50
2022/10/09 03:35:26;;;;;;;44.03;40.63;;;4.60;99.90;;;;;;5049957;28;20575;-49
2022/10/09 03:37:55;;;;;;;20.07;16.97;;;4.60;99.90;;;;;;5049741;28;20323;-52
2022/10/09 03:40:23;;;;;;;31.23;28.37;;;4.60;99.90;;;;;;5049484;28;20205;-52
2022/10/09 03:42:51;;;;;;;363.23;171.50;;;4.60;99.90;;;;;;5049581;28;20216;-51
2022/10/09 03:45:19;;;;;;;204.47;155.73;;;4.70;99.90;;;;;;5050409;28;20305;-51
2022/10/09 03:47:47;;;;;;;34.83;28.57;;;4.60;99.90;;;;;;5049598;28;20207;-51
2022/10/09 03:50:15;;;;;;;11.83;10.40;;;4.60;99.90;;;;;;5048160;28;20349;-51
2022/10/09 03:52:43;;;;;;;68.90;62.80;;;4.70;99.90;;;;;;5047580;28;20237;-51
2022/10/09 03:55:13;;;;;;;48.30;44.20;;;4.60;99.90;;;;;;5048965;28;20203;-50
2022/10/09 03:57:41;;;;;;;12.17;11.00;;;4.60;99.90;;;;;;5049495;28;20310;-51
2022/10/09 04:00:10;;;;;;;39.57;36.43;;;4.60;99.90;;;;;;5049670;28;20761;-49
2022/10/09 04:02:38;;;;;;;37.27;34.47;;;4.50;99.90;;;;;;5049691;28;20210;-51
2022/10/09 04:05:07;;;;;;;35.07;32.73;;;4.50;99.90;;;;;;5049313;28;20215;-51
2022/10/09 04:07:35;;;;;;;27.33;24.80;;;4.50;99.90;;;;;;5049726;28;20256;-51
2022/10/09 04:10:04;;;;;;;64.50;59.10;;;4.50;99.90;;;;;;5049636;28;20211;-51
2022/10/09 04:12:34;;;;;;;40.93;37.83;;;4.40;99.90;;;;;;5035474;28;20233;-50
2022/10/09 04:15:02;;;;;;;52.83;48.13;;;4.40;99.90;;;;;;5049153;28;20777;-51
2022/10/09 04:17:30;;;;;;;17.33;15.90;;;4.40;99.90;;;;;;5049947;28;20227;-51
2022/10/09 04:19:58;;;;;;;45.70;42.70;;;4.30;99.90;;;;;;5049774;28;20212;-50
2022/10/09 04:22:27;;;;;;;35.00;32.00;;;4.30;99.90;;;;;;5049771;28;20213;-51
2022/10/09 04:24:55;;;;;;;33.17;31.17;;;4.30;99.90;;;;;;5049602;28;20227;-50
2022/10/09 04:27:23;;;;;;;40.20;37.47;;;4.30;99.90;;;;;;5049665;28;20208;-50
2022/10/09 04:29:53;;;;;;;197.83;150.17;;;4.30;99.90;;;;;;5049870;28;20302;-51
2022/10/09 04:32:21;;;;;;;110.27;79.20;;;4.30;99.90;;;;;;5049637;28;20217;-51
2022/10/09 04:34:49;;;;;;;23.43;20.30;;;4.30;99.90;;;;;;5048001;28;20318;-51
2022/10/09 04:37:17;;;;;;;31.30;28.73;;;4.30;99.90;;;;;;5049032;28;20236;-50
2022/10/09 04:39:45;;;;;;;52.03;48.37;;;4.30;99.90;;;;;;5048872;28;20216;-51
2022/10/09 04:42:13;;;;;;;21.10;19.10;;;4.40;99.90;;;;;;5049639;28;20298;-51
2022/10/09 04:44:41;;;;;;;12.27;11.27;;;4.40;99.90;;;;;;5048675;28;20230;-50
2022/10/09 04:47:10;;;;;;;21.30;19.83;;;4.40;99.90;;;;;;5049756;28;20759;-51
2022/10/09 04:49:38;;;;;;;23.93;22.13;;;4.30;99.90;;;;;;5048974;28;20289;-50
2022/10/09 04:52:06;;;;;;;85.70;77.67;;;4.30;99.90;;;;;;5049407;28;20237;-50
2022/10/09 04:54:34;;;;;;;13.67;12.13;;;4.40;99.90;;;;;;5049471;28;20262;-51
2022/10/09 04:57:02;;;;;;;44.30;27.17;;;4.30;99.90;;;;;;5048956;28;20661;-52
2022/10/09 04:59:30;;;;;;;632.40;428.33;;;4.40;99.90;;;;;;5053343;28;20294;-51
2022/10/09 05:01:58;;;;;;;26.03;23.37;;;4.40;99.90;;;;;;5052516;28;20212;-51
2022/10/09 05:04:28;;;;;;;30.03;26.83;;;4.40;99.90;;;;;;5052736;28;20227;-51
2022/10/09 05:06:56;;;;;;;22.57;20.00;;;4.40;99.90;;;;;;5053251;28;20300;-51
2022/10/09 05:09:24;;;;;;;21.53;15.40;;;4.40;99.90;;;;;;5053714;28;20610;-52
2022/10/09 05:11:52;;;;;;;19.70;18.00;;;4.40;99.90;;;;;;5052588;28;20292;-51
2022/10/09 05:14:20;;;;;;;23.70;21.87;;;4.40;99.90;;;;;;5052927;28;20222;-52
2022/10/09 05:16:51;;;;;;;58.30;53.30;;;4.40;99.90;;;;;;5053906;28;20212;-51
2022/10/09 05:19:40;;;;;;;40.47;37.67;;;4.40;99.90;;;;;;5047876;28;20207;-50
2022/10/09 05:22:08;;;;;;;20.97;19.13;;;4.30;99.90;;;;;;5053046;28;20213;-51
2022/10/09 05:24:36;;;;;;;8.70;7.80;;;4.30;99.90;;;;;;5053382;28;20229;-51
2022/10/09 05:27:04;;;;;;;48.07;44.87;;;4.30;99.90;;;;;;5052511;28;20214;-51
2022/10/09 05:29:33;;;;;;;20.43;18.93;;;4.20;99.90;;;;;;5039462;28;20216;-52
2022/10/09 05:32:01;;;;;;;24.53;22.80;;;4.20;99.90;;;;;;5051045;28;20247;-51
2022/10/09 05:34:29;;;;;;;79.30;72.10;;;4.20;99.90;;;;;;5051852;28;20229;-50
2022/10/09 05:36:58;;;;;;;40.40;36.97;;;4.10;99.90;;;;;;5039253;28;20240;-51
2022/10/09 05:39:26;;;;;;;29.27;27.17;;;4.20;99.90;;;;;;5052013;28;20302;-50
2022/10/09 05:41:54;;;;;;;47.10;44.20;;;4.20;99.90;;;;;;5050920;28;20308;-51
2022/10/09 05:44:22;;;;;;;35.60;33.10;;;4.20;99.90;;;;;;5052743;28;20230;-50
2022/10/09 05:46:50;;;;;;;37.40;34.00;;;4.20;99.90;;;;;;5052713;28;20290;-51
2022/10/09 05:49:18;;;;;;;63.07;58.03;;;4.30;99.90;;;;;;5052710;28;20211;-51
2022/10/09 05:51:48;;;;;;;68.80;61.90;;;4.30;99.90;;;;;;5051080;28;20325;-51
2022/10/09 05:54:18;;;;;;;33.53;30.10;;;4.20;99.90;;;;;;5052082;28;20232;-51
2022/10/09 05:56:46;;;;;;;58.27;54.33;;;4.20;99.90;;;;;;5052355;28;20212;-49
2022/10/09 05:59:18;;;;;;;28.23;23.60;;;4.20;99.90;;;;;;5040683;28;20237;-50
2022/10/09 06:01:48;;;;;;;61.23;57.57;;;4.20;99.90;;;;;;5051636;28;20214;-51
2022/10/09 06:04:18;;;;;;;73.17;67.80;;;4.20;99.90;;;;;;5050991;28;20223;-50
2022/10/09 06:06:47;;;;;;;43.73;38.10;;;4.20;99.90;;;;;;5051670;28;20240;-50
2022/10/09 06:09:18;;;;;;;28.53;26.23;;;4.20;99.90;;;;;;5052211;28;20281;-50
2022/10/09 06:11:46;;;;;;;41.47;38.13;;;4.10;99.90;;;;;;5051596;28;20216;-51
2022/10/09 06:14:14;;;;;;;75.63;68.43;;;4.20;99.90;;;;;;5041251;28;20504;-51
2022/10/09 06:16:45;;;;;;;45.40;42.80;;;4.20;99.90;;;;;;5049255;28;20690;-50
2022/10/09 06:19:15;;;;;;;29.83;27.47;;;4.20;99.90;;;;;;5050506;28;20698;-51
2022/10/09 06:21:45;;;;;;;39.50;36.50;;;4.20;99.90;;;;;;5052100;28;20219;-51
2022/10/09 06:24:19;;;;;;;55.33;50.20;;;4.40;99.90;;;;;;5051931;28;20777;-51
2022/10/09 06:26:54;;;;;;;142.77;131.03;;;4.50;99.90;;;;;;5051732;28;20214;-51
2022/10/09 06:29:22;;;;;;;74.40;67.87;;;4.70;99.90;;;;;;5048885;28;20211;-51
2022/10/09 06:31:50;;;;;;;83.47;70.57;;;4.80;99.90;;;;;;5051136;28;20303;-51
2022/10/09 06:34:18;;;;;;;84.63;77.43;;;5.00;99.90;;;;;;5050630;28;20664;-51
2022/10/09 06:36:46;;;;;;;41.07;37.87;;;5.00;99.90;;;;;;5051957;28;20228;-51
2022/10/09 06:39:14;;;;;;;17.87;16.07;;;5.00;99.90;;;;;;5039229;28;20604;-51
2022/10/09 06:41:44;;;;;;;165.30;147.77;;;5.30;99.90;;;;;;5032983;28;20203;-51
2022/10/09 06:44:15;;;;;;;211.60;168.53;;;5.20;99.90;;;;;;5036038;28;20332;-51
2022/10/09 06:46:45;;;;;;;279.93;251.97;;;5.20;99.90;;;;;;5038347;28;20218;-51
2022/10/09 06:49:13;;;;;;;27.70;19.70;;;5.30;99.90;;;;;;5042477;28;20210;-50
2022/10/09 06:51:41;;;;;;;162.57;143.97;;;5.50;99.90;;;;;;5045798;28;20313;-51
2022/10/09 06:54:12;;;;;;;49.57;45.00;;;5.60;99.90;;;;;;5051402;28;20313;-52
2022/10/09 06:56:41;;;;;;;283.83;255.63;;;5.80;99.90;;;;;;5044710;28;20207;-51
2022/10/09 06:59:11;;;;;;;427.20;382.13;;;6.00;99.90;;;;;;5036934;28;20217;-51
2022/10/09 07:01:39;;;;;;;538.40;458.53;;;6.30;99.90;;;;;;5062578;28;20300;-51
2022/10/09 07:04:12;;;;;;;655.27;585.30;;;6.60;99.90;;;;;;5043185;28;20222;-51
2022/10/09 07:06:42;;;;;;;541.67;462.63;;;6.80;99.90;;;;;;5043190;28;20206;-51
2022/10/09 07:09:12;;;;;;;771.07;528.07;;;7.00;99.90;;;;;;5036430;28;20190;-51
2022/10/09 07:11:42;;;;;;;681.27;563.43;;;7.10;99.90;;;;;;5049733;28;20236;-50
2022/10/09 07:14:14;;;;;;;768.50;548.50;;;7.20;99.90;;;;;;5050075;28;20221;-51
2022/10/09 07:16:44;;;;;;;917.17;660.97;;;7.40;99.90;;;;;;5049852;28;20301;-51
2022/10/09 07:19:13;;;;;;;755.43;602.47;;;7.50;99.90;;;;;;5049705;28;20222;-51
2022/10/09 07:21:43;;;;;;;711.17;597.87;;;7.70;99.90;;;;;;5049914;28;20348;-52
2022/10/09 07:24:12;;;;;;;819.33;627.97;;;7.80;99.90;;;;;;5050182;28;20436;-51
2022/10/09 07:26:42;;;;;;;1001.73;689.70;;;8.10;99.90;;;;;;5050199;28;20316;-52
2022/10/09 07:29:13;;;;;;;747.37;621.30;;;8.20;99.90;;;;;;5049842;28;20200;-50
2022/10/09 07:31:42;;;;;;;732.90;583.93;;;8.30;99.90;;;;;;5048696;28;20671;-52
2022/10/09 07:34:10;;;;;;;713.73;588.10;;;8.40;99.90;;;;;;5048537;28;20229;-51
2022/10/09 07:36:38;;;;;;;668.77;538.80;;;8.60;99.90;;;;;;5046785;28;20212;-51
2022/10/09 07:39:06;;;;;;;671.03;519.23;;;8.70;99.90;;;;;;5049124;28;20223;-51
2022/10/09 07:41:35;;;;;;;710.60;525.83;;;8.70;99.90;;;;;;5049812;28;20210;-51
2022/10/09 07:44:03;;;;;;;641.23;530.27;;;8.60;99.90;;;;;;5040799;28;20228;-51
2022/10/09 07:46:33;;;;;;;600.00;463.07;;;8.60;99.90;;;;;;5044692;28;20292;-51
2022/10/09 07:49:01;;;;;;;423.23;326.00;;;8.60;99.90;;;;;;5050093;28;20209;-52
2022/10/09 07:51:31;;;;;;;420.20;375.33;;;8.60;99.90;;;;;;5049435;28;20220;-51
2022/10/09 07:54:00;;;;;;;382.93;324.70;;;8.70;99.90;;;;;;5047917;28;20226;-52
2022/10/09 07:56:31;;;;;;;482.87;373.50;;;8.70;99.90;;;;;;5046445;28;20205;-51
2022/10/09 07:59:01;;;;;;;672.70;427.30;;;8.80;99.90;;;;;;5045976;28;20222;-51
2022/10/09 08:01:30;;;;;;;236.63;179.07;;;8.80;99.90;;;;;;5054743;28;20669;-51
2022/10/09 08:04:00;;;;;;;304.43;239.40;;;8.80;99.90;;;;;;5046300;28;20229;-51
2022/10/09 08:06:29;;;;;;;75.27;41.80;;;8.90;99.90;;;;;;5047826;28;20244;-49
2022/10/09 08:08:59;;;;;;;78.47;61.43;;;8.90;99.90;;;;;;5047778;28;20233;-52
2022/10/09 08:11:28;;;;;;;66.90;60.27;;;9.00;99.90;;;;;;5048047;28;20213;-51
2022/10/09 08:13:56;;;;;;;149.40;123.73;;;9.10;99.90;;;;;;5048504;28;20316;-51
2022/10/09 08:16:25;;;;;;;84.97;48.80;;;9.20;99.90;;;;;;5049049;28;20634;-51
2022/10/09 08:18:55;;;;;;;83.53;74.57;;;9.20;99.90;;;;;;5048937;28;20235;-51
2022/10/09 08:21:26;;;;;;;188.40;142.03;;;9.30;99.90;;;;;;5050864;28;20203;-50
2022/10/09 08:23:55;;;;;;;242.63;166.07;;;9.40;99.90;;;;;;5046015;28;20226;-52
2022/10/09 08:26:25;;;;;;;237.30;112.93;;;9.50;99.90;;;;;;5051109;28;20198;-51
2022/10/09 08:28:55;;;;;;;236.23;189.20;;;9.70;99.90;;;;;;5048926;28;20229;-51
2022/10/09 08:31:23;;;;;;;162.00;127.23;;;9.70;99.90;;;;;;5047582;28;20207;-51
2022/10/09 08:33:53;;;;;;;131.90;81.73;;;9.80;99.90;;;;;;5048114;28;20258;-50
2022/10/09 08:36:22;;;;;;;287.77;208.03;;;9.90;99.90;;;;;;5050971;28;20292;-51
2022/10/09 08:38:52;;;;;;;99.20;52.57;;;10.00;99.90;;;;;;5051269;28;20989;-51
2022/10/09 08:41:27;;;;;;;370.13;270.43;;;10.10;99.90;;;;;;5050641;28;20805;-52
2022/10/09 08:44:01;;;;;;;457.23;349.07;;;10.20;99.90;;;;;;5047401;28;20960;-51
2022/10/09 08:46:36;;;;;;;261.23;219.57;;;10.20;99.90;;;;;;5050067;28;20303;-52
2022/10/09 08:49:05;;;;;;;389.20;224.17;;;10.30;99.90;;;;;;5052278;28;20300;-51
2022/10/09 08:51:37;;;;;;;255.30;203.77;;;10.30;99.90;;;;;;5049584;28;20213;-50
2022/10/09 08:54:19;;;;;;;334.20;262.60;;;10.30;99.90;;;;;;5051892;28;20580;-50
2022/10/09 08:56:49;;;;;;;295.00;201.40;;;10.40;99.90;;;;;;5052502;28;20648;-51
2022/10/09 08:59:17;;;;;;;377.73;265.90;;;10.50;99.90;;;;;;5051953;28;20324;-51
2022/10/09 09:01:51;;;;;;;290.87;228.67;;;10.60;99.90;;;;;;5052846;28;20288;-52
2022/10/09 09:04:34;;;;;;;289.07;187.23;;;10.60;99.90;;;;;;5052440;28;20231;-52
2022/10/09 09:07:12;;;;;;;303.00;190.70;;;10.70;99.90;;;;;;5053011;28;20300;-51
2022/10/09 09:09:50;;;;;;;380.37;313.90;;;10.80;99.90;;;;;;5052609;28;20278;-52
2022/10/09 09:12:27;;;;;;;529.17;427.90;;;10.90;99.90;;;;;;5048068;28;20210;-51
2022/10/09 09:15:20;;;;;;;295.77;216.00;;;11.00;99.90;;;;;;5039006;28;20224;-51
2022/10/09 09:17:57;;;;;;;151.03;96.70;;;11.10;99.90;;;;;;5052870;28;20292;-51
2022/10/09 09:20:30;;;;;;;199.63;171.20;;;11.20;99.90;;;;;;5052347;28;20213;-51
2022/10/09 09:23:01;;;;;;;446.90;320.57;;;11.20;99.90;;;;;;5050935;28;20304;-51
2022/10/09 09:25:34;;;;;;;702.40;625.30;;;11.30;99.90;;;;;;5052691;28;20281;-51
2022/10/09 09:28:13;;;;;;;412.57;315.73;;;11.30;99.90;;;;;;5052376;28;20288;-51
2022/10/09 09:30:46;;;;;;;799.83;480.60;;;11.40;99.90;;;;;;5053043;28;20197;-51
2022/10/09 09:33:21;;;;;;;684.03;518.43;;;11.50;99.90;;;;;;5051508;28;20236;-50
2022/10/09 09:36:05;;;;;;;632.90;478.63;;;11.60;99.90;;;;;;5052374;28;20693;-51
2022/10/09 09:38:33;;;;;;;519.63;426.67;;;11.60;99.90;;;;;;5052265;28;20746;-51
2022/10/09 09:41:04;;;;;;;632.70;507.70;;;11.70;99.90;;;;;;5052028;28;20316;-50
2022/10/09 09:43:32;;;;;;;631.13;501.03;;;11.70;99.90;;;;;;5051029;28;20669;-52
2022/10/09 09:46:00;;;;;;;725.97;544.97;;;11.80;99.90;;;;;;5052175;28;20300;-52
2022/10/09 09:48:34;;;;;;;500.73;382.30;;;11.80;99.90;;;;;;5052183;28;20214;-51
2022/10/09 09:51:04;;;;;;;798.37;532.63;;;11.90;99.90;;;;;;5052426;28;20624;-51
2022/10/09 09:53:54;;;;;;;551.37;471.47;;;11.90;99.90;;;;;;5050189;28;20244;-52
2022/10/09 09:56:36;;;;;;;739.80;587.33;;;12.00;99.90;;;;;;5051467;28;20212;-51
2022/10/09 09:59:33;;;;;;;681.37;500.60;;;12.00;99.90;;;;;;5051701;28;20585;-50
2022/10/09 10:02:04;;;;;;;632.90;559.97;;;12.00;99.90;;;;;;5051680;28;20718;-50
2022/10/09 10:04:32;;;;;;;752.03;614.07;;;12.10;99.90;;;;;;5050740;28;21038;-50
2022/10/09 10:07:01;;;;;;;680.43;529.53;;;12.20;99.90;;;;;;5052160;28;20318;-51
2022/10/09 10:09:30;;;;;;;865.37;645.33;;;12.20;99.90;;;;;;5051722;28;20682;-51
2022/10/09 10:12:02;;;;;;;589.43;495.97;;;12.30;99.90;;;;;;5045360;28;20321;-50
2022/10/09 10:14:31;;;;;;;886.97;627.50;;;12.30;99.90;;;;;;5051478;28;20264;-51
2022/10/09 10:17:00;;;;;;;941.37;651.23;;;12.30;99.90;;;;;;5051234;28;20206;-52
2022/10/09 10:19:30;;;;;;;729.17;598.33;;;12.40;99.90;;;;;;5051380;28;20579;-51
2022/10/09 10:22:00;;;;;;;600.77;538.63;;;12.40;99.90;;;;;;5047308;28;20619;-50
2022/10/09 10:24:32;;;;;;;1032.93;710.80;;;12.50;99.90;;;;;;5047309;28;20288;-51
2022/10/09 10:27:07;;;;;;;843.53;624.90;;;12.50;99.90;;;;;;5047661;28;20202;-51
2022/10/09 10:29:38;;;;;;;499.67;434.70;;;12.60;99.90;;;;;;5045456;28;20207;-52
2022/10/09 10:32:15;;;;;;;624.20;552.60;;;12.60;99.90;;;;;;5050010;28;20320;-52
2022/10/09 10:34:47;;;;;;;492.87;385.70;;;12.70;99.90;;;;;;5049393;28;20370;-51
2022/10/09 10:37:27;;;;;;;495.40;375.97;;;12.70;99.90;;;;;;5049469;28;20331;-51
2022/10/09 10:40:01;;;;;;;715.57;576.47;;;12.70;99.90;;;;;;5049850;28;20702;-52
2022/10/09 10:42:40;;;;;;;636.60;519.40;;;12.70;99.90;;;;;;5048875;28;20216;-51
2022/10/09 10:45:14;;;;;;;599.27;488.77;;;12.80;99.90;;;;;;5046273;28;20327;-51
2022/10/09 10:47:51;;;;;;;758.23;609.80;;;12.80;99.90;;;;;;5047263;28;20206;-51
2022/10/09 10:50:20;;;;;;;469.23;418.67;;;12.90;99.90;;;;;;5044333;28;20217;-51
2022/10/09 10:53:03;;;;;;;712.17;613.07;;;13.00;99.90;;;;;;5041597;28;20224;-51
2022/10/09 10:55:40;;;;;;;649.73;516.27;;;13.00;99.90;;;;;;5044097;28;20284;-51
2022/10/09 10:58:22;;;;;;;633.23;539.00;;;13.00;99.90;;;;;;5048798;28;20524;-51
2022/10/09 11:00:57;;;;;;;622.73;557.20;;;13.10;99.90;;;;;;5049129;28;20299;-51
2022/10/09 11:03:42;;;;;;;714.40;594.07;;;13.10;99.90;;;;;;5050374;28;20717;-51
2022/10/09 11:06:21;;;;;;;923.37;656.87;;;13.20;99.90;;;;;;5051288;28;20215;-52
2022/10/09 11:09:08;;;;;;;924.73;727.37;;;13.20;99.90;;;;;;5051503;28;20204;-52
2022/10/09 11:11:44;;;;;;;505.03;460.90;;;13.20;99.90;;;;;;5050359;28;20284;-51
2022/10/09 11:14:26;;;;;;;582.40;522.50;;;13.30;99.90;;;;;;5050867;28;20817;-51
2022/10/09 11:17:06;;;;;;;685.70;588.87;;;13.30;99.90;;;;;;5050176;28;20288;-51
2022/10/09 11:20:04;;;;;;;652.17;584.03;;;13.30;99.90;;;;;;5048988;28;20300;-50
2022/10/09 11:22:56;;;;;;;606.37;546.87;;;13.40;99.90;;;;;;5050158;28;20309;-49
2022/10/09 11:25:30;;;;;;;483.87;441.87;;;13.40;99.90;;;;;;5048767;28;20230;-50
2022/10/09 11:28:04;;;;;;;524.70;474.43;;;13.40;99.90;;;;;;5045753;28;20580;-51
2022/10/09 11:30:43;;;;;;;691.37;615.37;;;13.40;99.90;;;;;;5047055;28;20308;-51
2022/10/09 11:33:28;;;;;;;564.20;509.83;;;13.40;99.90;;;;;;5049327;28;20352;-51
2022/10/09 11:36:01;;;;;;;777.63;655.67;;;13.50;99.90;;;;;;5042632;28;20212;-51
2022/10/09 11:38:34;;;;;;;618.73;556.20;;;13.50;99.90;;;;;;5037714;28;20530;-51
2022/10/09 11:41:04;;;;;;;770.43;653.80;;;13.50;99.90;;;;;;5036261;28;20226;-52
2022/10/09 11:43:51;;;;;;;558.97;503.17;;;13.60;99.90;;;;;;5039697;28;20221;-51
2022/10/09 11:46:32;;;;;;;656.43;586.03;;;13.60;99.90;;;;;;5046607;28;20716;-51
2022/10/09 11:49:09;;;;;;;717.23;610.37;;;13.70;99.90;;;;;;5047439;28;20305;-51
2022/10/09 11:51:44;;;;;;;552.50;496.80;;;13.70;99.90;;;;;;5042013;28;20301;-50
2022/10/09 11:54:16;;;;;;;592.23;527.30;;;13.70;99.90;;;;;;5046976;28;20329;-52
2022/10/09 11:56:56;;;;;;;784.03;578.63;;;13.70;99.90;;;;;;5040503;28;20209;-51
2022/10/09 11:59:28;;;;;;;707.07;560.50;;;13.70;99.90;;;;;;5033212;28;20301;-49
2022/10/09 12:02:00;;;;;;;853.60;674.40;;;13.70;99.90;;;;;;5042650;28;20260;-50
2022/10/09 12:04:31;;;;;;;760.73;603.30;;;13.80;99.90;;;;;;5036184;28;20244;-52
2022/10/09 12:07:32;;;;;;;810.50;578.90;;;13.80;99.90;;;;;;5048311;28;20221;-51
2022/10/09 12:10:04;;;;;;;743.40;562.83;;;13.90;99.90;;;;;;5048738;28;20255;-51
2022/10/09 12:12:33;;;;;;;634.07;561.93;;;13.80;99.90;;;;;;5047921;28;20205;-50
2022/10/09 12:15:22;;;;;;;891.07;633.70;;;13.80;99.90;;;;;;5046001;28;20221;-52
2022/10/09 12:17:52;;;;;;;1249.87;749.47;;;13.80;99.90;;;;;;5048445;28;20213;-52
2022/10/09 12:20:23;;;;;;;743.33;570.00;;;13.90;99.90;;;;;;5045977;28;20297;-51
2022/10/09 12:22:55;;;;;;;806.47;604.73;;;13.90;99.90;;;;;;5047248;28;20300;-52
2022/10/09 12:25:45;;;;;;;1107.17;711.30;;;13.80;99.90;;;;;;5048371;28;20208;-49
2022/10/09 12:28:20;;;;;;;572.87;511.83;;;13.90;99.90;;;;;;5038327;28;20198;-50
2022/10/09 12:30:50;;;;;;;778.50;568.73;;;13.90;99.90;;;;;;5034592;28;20212;-51
2022/10/09 12:33:25;;;;;;;862.83;615.23;;;13.90;99.90;;;;;;5033092;28;20225;-50
2022/10/09 12:36:04;;;;;;;779.87;601.67;;;13.90;99.90;;;;;;5029955;28;20206;-51
2022/10/09 12:38:33;;;;;;;819.37;598.23;;;13.90;99.90;;;;;;5045012;28;20300;-51
2022/10/09 12:41:04;;;;;;;934.17;638.47;;;14.00;99.90;;;;;;5044955;28;20767;-52
2022/10/09 12:43:33;;;;;;;643.00;506.67;;;14.10;99.90;;;;;;5040469;28;20225;-52
2022/10/09 12:46:01;;;;;;;694.20;577.83;;;14.10;99.90;;;;;;5048560;28;20284;-51
2022/10/09 12:48:37;;;;;;;968.90;639.07;;;14.10;99.90;;;;;;5041026;28;20224;-52